createdAt,value
2022-08-17T16:03:13.420Z,32.00
2022-08-17T16:03:58.183Z,36.40
2022-08-17T16:05:28.179Z,37.80
2022-08-17T16:07:01.942Z,37.40
2022-08-17T16:08:34.664Z,26.40
2022-08-17T16:10:07.455Z,45.80
2022-08-17T16:11:39.286Z,41.80
2022-08-17T16:13:17.404Z,37.40
2022-08-17T16:14:49.941Z,31.00
2022-08-17T16:16:23.571Z,38.20
2022-08-17T16:17:55.648Z,37.40
2022-08-17T16:19:27.467Z,37.20
2022-08-17T16:21:23.394Z,31.20
2022-08-17T16:22:55.482Z,33.80
2022-08-17T16:24:27.548Z,37.40
2022-08-17T16:26:00.042Z,38.40
2022-08-17T16:27:31.898Z,35.00
2022-08-17T16:29:05.728Z,39.80
2022-08-17T16:30:38.388Z,36.40
2022-08-17T16:32:15.776Z,37.40
2022-08-17T16:34:15.848Z,45.40
2022-08-17T16:35:42.058Z,36.40
2022-08-17T16:37:13.971Z,25.20
2022-08-17T16:38:46.702Z,38.00
2022-08-17T16:40:18.519Z,35.60
2022-08-17T16:41:50.336Z,42.40
2022-08-17T16:43:22.088Z,39.40
2022-08-17T16:44:54.209Z,37.20
2022-08-17T16:46:25.981Z,33.00
2022-08-17T16:48:01.606Z,39.80
2022-08-17T16:49:37.344Z,30.20
2022-08-17T16:51:09.772Z,36.60
2022-08-17T16:52:41.740Z,34.00
2022-08-17T16:54:17.685Z,42.20
2022-08-17T16:55:52.658Z,34.20
2022-08-17T16:57:24.576Z,35.20
2022-08-17T16:58:57.836Z,44.00
2022-08-17T17:00:42.338Z,37.80
2022-08-17T17:02:14.591Z,38.20
2022-08-17T17:03:49.073Z,37.40
2022-08-17T17:05:35.819Z,39.80
2022-08-17T17:07:25.734Z,41.40
2022-08-17T17:08:58.534Z,37.60
2022-08-17T17:10:37.321Z,46.20
2022-08-17T17:12:11.763Z,43.20
2022-08-17T17:13:49.349Z,50.80
2022-08-17T17:15:22.287Z,59.80
2022-08-17T17:17:13.945Z,57.80
2022-08-17T17:19:12.396Z,67.40
2022-08-17T17:20:53.745Z,60.20
2022-08-17T17:22:31.875Z,58.20
2022-08-17T17:24:07.549Z,60.80
2022-08-17T17:26:10.351Z,66.20
2022-08-17T17:28:01.197Z,63.60
2022-08-17T17:29:48.536Z,65.80
2022-08-17T17:31:23.849Z,63.60
2022-08-17T17:33:04.114Z,64.60
2022-08-17T17:34:35.911Z,61.40
2022-08-17T17:36:13.320Z,63.40
2022-08-17T17:37:45.213Z,62.00
2022-08-17T17:39:44.842Z,64.20
2022-08-17T17:41:25.343Z,64.20
2022-08-17T17:43:14.291Z,61.40
2022-08-17T17:44:58.606Z,63.00
2022-08-17T17:46:38.392Z,58.40
2022-08-17T17:48:10.428Z,58.20
2022-08-17T17:49:46.924Z,61.80
2022-08-17T17:52:09.177Z,62.40
2022-08-17T17:54:04.463Z,64.00
2022-08-17T17:56:06.945Z,60.60
2022-08-17T17:58:14.497Z,66.60
2022-08-17T17:59:55.296Z,64.00
2022-08-17T18:01:59.274Z,63.60
2022-08-17T18:03:52.847Z,61.00
2022-08-17T18:05:36.868Z,59.40
2022-08-17T18:07:23.488Z,66.60
2022-08-17T18:09:02.045Z,52.40
2022-08-17T18:10:41.539Z,60.60
2022-08-17T18:12:40.932Z,60.20
2022-08-17T18:14:40.188Z,60.80
2022-08-17T18:16:13.941Z,59.80
2022-08-17T18:18:22.932Z,62.20
2022-08-17T18:19:56.034Z,62.20
2022-08-17T18:21:47.813Z,63.20
2022-08-17T18:23:23.098Z,74.40
2022-08-17T18:25:00.860Z,66.20
2022-08-17T18:26:55.414Z,77.00
2022-08-17T18:28:30.376Z,71.80
2022-08-17T18:30:12.751Z,72.60
2022-08-17T18:31:44.472Z,72.40
2022-08-17T18:33:23.124Z,74.40
2022-08-17T18:35:27.715Z,71.60
2022-08-17T18:36:59.634Z,67.00
2022-08-17T18:38:36.075Z,71.00
2022-08-17T18:40:17.070Z,73.40
2022-08-17T18:41:50.752Z,68.00
2022-08-17T18:43:27.949Z,65.20
2022-08-17T18:45:33.514Z,68.00
2022-08-17T18:47:21.299Z,70.60
2022-08-17T18:48:54.437Z,63.60
2022-08-17T18:50:41.134Z,66.40
2022-08-17T18:52:21.680Z,65.00
2022-08-17T18:54:16.743Z,62.80
2022-08-17T18:55:48.474Z,67.40
2022-08-17T18:57:31.227Z,67.40
2022-08-17T18:59:16.976Z,64.00
2022-08-17T19:00:49.169Z,70.20
2022-08-17T19:02:37.276Z,70.80
2022-08-17T19:04:33.981Z,68.80
2022-08-17T19:06:25.694Z,63.40
2022-08-17T19:08:17.260Z,67.20
2022-08-17T19:10:09.059Z,64.60
2022-08-17T19:11:41.784Z,62.60
2022-08-17T19:13:24.307Z,68.20
2022-08-17T19:14:56.737Z,67.40
2022-08-17T19:16:57.357Z,60.80
2022-08-17T19:18:32.047Z,65.40
2022-08-17T19:20:14.397Z,63.80
2022-08-17T19:22:08.854Z,62.80
2022-08-17T19:23:54.069Z,64.60
2022-08-17T19:25:29.609Z,67.40
2022-08-17T19:27:19.122Z,66.20
2022-08-17T19:28:56.756Z,66.00
2022-08-17T19:30:28.508Z,69.80
2022-08-17T19:32:00.236Z,70.00
2022-08-17T19:33:32.100Z,63.20
2022-08-17T19:35:05.176Z,60.80
2022-08-17T19:36:50.181Z,64.80
2022-08-17T19:38:49.465Z,66.80
2022-08-17T19:40:51.052Z,67.20
2022-08-17T19:42:47.745Z,67.20
2022-08-17T19:44:40.277Z,65.20
2022-08-17T19:46:14.730Z,68.20
2022-08-17T19:47:55.389Z,71.60
2022-08-17T19:49:46.605Z,67.80
2022-08-17T19:51:28.173Z,72.40
2022-08-17T19:53:19.141Z,70.80
2022-08-17T19:55:19.839Z,69.20
2022-08-17T19:57:14.198Z,66.00
2022-08-17T19:59:01.233Z,70.40
2022-08-17T20:00:35.311Z,70.00
2022-08-17T20:02:38.231Z,72.80
2022-08-17T20:04:16.600Z,72.80
2022-08-17T20:07:55.658Z,82.50
2022-08-17T20:09:36.401Z,74.60
2022-08-17T20:11:10.182Z,72.80
2022-08-17T20:12:44.631Z,72.20
2022-08-17T20:14:20.858Z,78.25
2022-08-17T20:15:52.680Z,93.50
2022-08-17T20:17:28.139Z,76.00
2022-08-17T20:19:25.073Z,76.80
2022-08-17T20:21:19.975Z,78.25
2022-08-17T20:23:21.573Z,78.50
2022-08-17T20:25:08.816Z,78.00
2022-08-17T20:26:58.974Z,78.00
2022-08-17T20:28:35.248Z,76.75
2022-08-17T20:30:11.407Z,78.50
2022-08-17T20:31:57.549Z,74.75
2022-08-17T20:33:36.799Z,84.25
2022-08-17T20:35:25.146Z,82.00
2022-08-17T20:36:59.553Z,74.80
2022-08-17T20:38:44.812Z,82.50
2022-08-17T20:40:20.972Z,76.25
2022-08-17T20:42:07.692Z,76.00
2022-08-17T20:43:39.670Z,76.25
2022-08-17T20:45:26.349Z,81.50
2022-08-17T20:47:03.903Z,80.25
2022-08-17T20:48:39.129Z,80.25
2022-08-17T20:50:26.002Z,82.00
2022-08-17T20:52:08.500Z,129.00
2022-08-17T20:53:49.450Z,116.25
2022-08-17T20:55:40.364Z,106.50
2022-08-17T20:57:33.493Z,102.50
2022-08-17T20:59:05.241Z,106.50
2022-08-17T21:00:45.219Z,100.75
2022-08-17T21:02:21.070Z,86.25
2022-08-17T21:03:52.919Z,93.25
2022-08-17T21:05:34.736Z,93.75
2022-08-17T21:07:43.141Z,90.25
2022-08-17T21:09:27.669Z,104.25
2022-08-17T21:11:00.672Z,87.75
2022-08-17T21:12:50.177Z,94.75
2022-08-17T21:14:56.428Z,88.25
2022-08-17T21:16:41.341Z,88.00
2022-08-17T21:18:29.173Z,90.75
2022-08-17T21:20:42.378Z,95.25
2022-08-17T21:22:25.982Z,92.25
2022-08-17T21:24:16.252Z,89.00
2022-08-17T21:25:49.165Z,82.00
2022-08-17T21:27:50.550Z,81.25
2022-08-17T21:29:31.104Z,74.00
2022-08-17T21:31:09.840Z,85.50
2022-08-17T21:32:41.998Z,84.00
2022-08-17T21:34:16.906Z,90.50
2022-08-17T21:36:16.033Z,95.50
2022-08-17T21:37:48.510Z,120.50
2022-08-17T21:39:24.127Z,94.50
2022-08-17T21:41:04.986Z,98.75
2022-08-17T21:42:38.955Z,95.00
2022-08-17T21:44:21.556Z,84.50
2022-08-17T21:46:05.077Z,86.00
2022-08-17T21:47:43.711Z,88.50
2022-08-17T21:49:17.813Z,86.25
2022-08-17T21:51:18.220Z,80.00
2022-08-17T21:52:50.371Z,108.00
2022-08-17T21:54:35.768Z,102.25
2022-08-17T21:56:07.860Z,89.75
2022-08-17T21:57:41.393Z,125.50
2022-08-17T21:59:33.020Z,99.25
2022-08-17T22:01:19.561Z,88.50
2022-08-17T22:02:56.665Z,94.00
2022-08-17T22:04:31.410Z,86.00
2022-08-17T22:06:52.354Z,92.75
2022-08-17T22:08:29.245Z,85.75
2022-08-17T22:10:01.151Z,92.75
2022-08-17T22:11:52.779Z,94.00
2022-08-17T22:13:24.826Z,89.00
2022-08-17T22:15:07.367Z,86.00
2022-08-17T22:16:39.169Z,89.00
2022-08-17T22:18:19.760Z,80.75
2022-08-17T22:19:56.489Z,89.25
2022-08-17T22:21:28.211Z,88.50
2022-08-17T22:23:29.176Z,89.50
2022-08-17T22:25:06.014Z,83.25
2022-08-17T22:27:00.208Z,85.75
2022-08-17T22:28:40.513Z,77.00
2022-08-17T22:30:25.331Z,83.25
2022-08-17T22:31:57.572Z,81.00
2022-08-17T22:34:09.478Z,85.00
